createdAt,value
2023-01-18T00:01:12.936Z,-1.95405
2023-01-18T00:06:13.857Z,-2.08647
2023-01-18T00:11:14.850Z,-2.06225
2023-01-18T00:16:15.849Z,-2.08034
2023-01-18T00:21:16.841Z,-2.03124
2023-01-18T00:26:17.745Z,-2.03286
2023-01-18T00:31:18.822Z,-2.01961
2023-01-18T00:36:19.768Z,-2.03092
2023-01-18T00:41:20.700Z,-2.03964
2023-01-18T00:46:21.659Z,-2.09907
2023-01-18T00:51:22.584Z,-2.18563
2023-01-18T00:56:23.551Z,-2.11522
2023-01-18T01:01:24.549Z,-2.01671
2023-01-18T01:06:25.486Z,-2.04449
2023-01-18T01:11:26.544Z,-2.00766
2023-01-18T01:16:27.554Z,-1.99959
2023-01-18T01:21:28.493Z,-1.9618
2023-01-18T01:26:29.440Z,-1.8888
2023-01-18T01:31:30.355Z,-1.86361
2023-01-18T01:36:31.298Z,-1.80902
2023-01-18T01:41:32.241Z,-1.71115
2023-01-18T01:46:33.245Z,-1.67401
2023-01-18T01:51:34.210Z,-1.71115
2023-01-18T01:56:35.144Z,-1.67982
2023-01-18T02:01:36.186Z,-1.62879
2023-01-18T02:06:37.191Z,-1.5897
2023-01-18T02:11:38.162Z,-1.61102
2023-01-18T02:16:39.137Z,-1.66012
2023-01-18T02:21:40.110Z,-1.64881
2023-01-18T02:26:41.038Z,-1.62685
2023-01-18T02:31:41.919Z,-1.58228
2023-01-18T02:36:42.844Z,-1.56031
2023-01-18T02:41:44.117Z,-1.53221
2023-01-18T02:46:45.124Z,-1.53964
2023-01-18T02:51:46.626Z,-1.58098
2023-01-18T02:56:47.878Z,-1.57291
2023-01-18T03:01:48.950Z,-1.55094
2023-01-18T03:06:49.935Z,-1.58551
2023-01-18T03:11:50.915Z,-1.58324
2023-01-18T03:16:51.895Z,-1.57905
2023-01-18T03:21:52.824Z,-1.61005
2023-01-18T03:26:53.842Z,-1.53802
2023-01-18T03:31:54.728Z,-1.54707
2023-01-18T03:36:55.713Z,-1.57
2023-01-18T03:41:56.589Z,-1.466
2023-01-18T03:46:57.553Z,-1.45017
2023-01-18T03:51:58.460Z,-1.48053
2023-01-18T03:56:59.421Z,-1.47084
2023-01-18T04:02:00.371Z,-1.4408
2023-01-18T04:07:01.367Z,-1.44597
2023-01-18T04:12:02.354Z,-1.47601
2023-01-18T04:17:03.312Z,-1.41884
2023-01-18T04:22:04.273Z,-1.34132
2023-01-18T04:27:05.301Z,-1.31386
2023-01-18T04:32:06.186Z,-1.34196
2023-01-18T04:37:07.306Z,-1.30062
2023-01-18T04:42:08.232Z,-1.268
2023-01-18T04:47:09.252Z,-1.24539
2023-01-18T04:52:10.176Z,-1.22601
2023-01-18T04:57:11.279Z,-1.17368
2023-01-18T05:02:12.216Z,-1.08841
2023-01-18T05:07:13.181Z,-1.04287
2023-01-18T05:12:14.175Z,-1.06871
2023-01-18T05:17:15.272Z,-1.05191
2023-01-18T05:22:16.283Z,-0.98311
2023-01-18T05:27:17.339Z,-0.95469
2023-01-18T05:32:18.348Z,-0.93951
2023-01-18T05:37:19.289Z,-0.88557
2023-01-18T05:42:20.185Z,-0.84487
2023-01-18T05:47:21.085Z,-0.83647
2023-01-18T05:52:22.009Z,-0.86296
2023-01-18T05:57:23.074Z,-0.79157
2023-01-18T06:02:24.007Z,-0.75798
2023-01-18T06:07:24.920Z,-0.67142
2023-01-18T06:12:25.871Z,-0.61166
2023-01-18T06:17:26.792Z,-0.54867
2023-01-18T06:22:27.689Z,-0.51121
2023-01-18T06:27:28.696Z,-0.50765
2023-01-18T06:32:29.660Z,-0.46146
2023-01-18T06:37:30.592Z,-0.44047
2023-01-18T06:42:31.507Z,-0.42141
2023-01-18T06:47:32.443Z,-0.43498
2023-01-18T06:52:33.351Z,-0.40946
2023-01-18T06:57:34.256Z,-0.35584
2023-01-18T07:02:35.201Z,-0.33452
2023-01-18T07:07:36.188Z,-0.35358
2023-01-18T07:12:37.094Z,-0.34098
2023-01-18T07:17:38.021Z,-0.29124
2023-01-18T07:22:38.997Z,-0.19983
2023-01-18T07:27:39.926Z,-0.15138
2023-01-18T07:32:41.085Z,-0.14008
2023-01-18T07:37:42.025Z,-0.10519
2023-01-18T07:42:42.965Z,-0.04414
2023-01-18T07:47:44.088Z,-0.00861
2023-01-18T07:52:45.011Z,-0.07935
2023-01-18T07:57:46.130Z,-0.05577
2023-01-18T08:02:47.427Z,0.04048
2023-01-18T08:07:48.663Z,0.11897
2023-01-18T08:12:49.613Z,0.23719
2023-01-18T08:17:50.572Z,0.31794
2023-01-18T08:22:51.494Z,0.4184
2023-01-18T08:27:52.440Z,0.53274
2023-01-18T08:32:53.434Z,0.58862
2023-01-18T08:37:54.393Z,0.70587
2023-01-18T08:42:55.381Z,0.80052
2023-01-18T08:47:56.330Z,0.89968
2023-01-18T08:52:57.665Z,0.94522
2023-01-18T08:57:58.857Z,1.08412
2023-01-18T09:03:00.193Z,1.21655
2023-01-18T09:08:01.407Z,1.3577
2023-01-18T09:13:02.528Z,1.45945
2023-01-18T09:18:03.594Z,1.49337
2023-01-18T09:23:04.529Z,1.65455
2023-01-18T09:28:05.497Z,1.70332
2023-01-18T09:33:06.520Z,1.90682
2023-01-18T09:38:07.522Z,1.94623
2023-01-18T09:43:08.427Z,1.8532
2023-01-18T09:48:09.344Z,1.78214
2023-01-18T09:53:10.272Z,1.79538
2023-01-18T09:58:11.249Z,1.97142
2023-01-18T10:03:12.145Z,2.09514
2023-01-18T10:08:13.111Z,2.15037
2023-01-18T10:13:14.128Z,2.1859
2023-01-18T10:18:15.142Z,2.26859
2023-01-18T10:23:16.047Z,2.39941
2023-01-18T10:28:17.012Z,2.45077
2023-01-18T10:33:17.931Z,2.48372
2023-01-18T10:38:18.899Z,2.43591
2023-01-18T10:43:19.851Z,2.3852
2023-01-18T10:48:20.827Z,2.40975
2023-01-18T10:53:21.760Z,2.46305
2023-01-18T10:58:22.719Z,2.43494
2023-01-18T11:03:23.652Z,2.48663
2023-01-18T11:08:24.641Z,2.62455
2023-01-18T11:13:25.610Z,2.71403
2023-01-18T11:18:31.780Z,2.85131
2023-01-18T11:23:32.671Z,2.90881
2023-01-18T11:28:33.678Z,2.86003
2023-01-18T11:33:34.566Z,2.84162
2023-01-18T11:38:35.502Z,2.79317
2023-01-18T11:43:36.425Z,2.74116
2023-01-18T11:48:37.385Z,2.81836
2023-01-18T11:53:38.684Z,2.85486
2023-01-18T11:58:39.744Z,2.84259
2023-01-18T12:03:40.716Z,2.90848
2023-01-18T12:08:41.694Z,2.86584
2023-01-18T12:13:42.826Z,2.94143
2023-01-18T12:18:43.811Z,3.02121
2023-01-18T12:23:44.766Z,3.06773
2023-01-18T12:28:45.789Z,3.05804
2023-01-18T12:33:47.207Z,3.04156
2023-01-18T12:38:48.384Z,2.97115
2023-01-18T12:43:49.335Z,3.00991
2023-01-18T12:48:50.249Z,2.9537
2023-01-18T12:53:51.207Z,2.96049
2023-01-18T12:58:52.199Z,2.86132
2023-01-18T13:03:53.085Z,2.81255
2023-01-18T13:08:54.028Z,2.66267
2023-01-18T13:13:55.019Z,2.60033
2023-01-18T13:18:55.937Z,2.48566
2023-01-18T13:23:56.883Z,2.32221
2023-01-18T13:28:57.813Z,2.21239
2023-01-18T13:33:58.771Z,2.16749
2023-01-18T13:38:59.708Z,2.2111
2023-01-18T13:44:00.663Z,2.28668
2023-01-18T13:49:01.855Z,2.34482
2023-01-18T13:54:02.797Z,2.29637
2023-01-18T13:59:03.743Z,2.22273
2023-01-18T14:04:04.690Z,2.17524
2023-01-18T14:09:05.818Z,2.12001
2023-01-18T14:14:06.998Z,2.09417
2023-01-18T14:19:07.941Z,2.01794
2023-01-18T14:24:08.850Z,2.01309
2023-01-18T14:29:09.817Z,2.01148
2023-01-18T14:34:10.837Z,2.03118
2023-01-18T14:39:11.790Z,1.97142
2023-01-18T14:44:12.696Z,1.86709
2023-01-18T14:49:13.756Z,1.82768
2023-01-18T14:54:14.705Z,1.87936
2023-01-18T14:59:15.650Z,1.91554
2023-01-18T15:04:16.549Z,1.9585
2023-01-18T15:09:17.464Z,1.86774
2023-01-18T15:14:18.425Z,1.89907
2023-01-18T15:19:19.373Z,1.90165
2023-01-18T15:24:20.449Z,1.87032
2023-01-18T15:29:21.367Z,1.87258
2023-01-18T15:34:22.279Z,1.92459
2023-01-18T15:39:23.206Z,1.87517
2023-01-18T15:44:24.213Z,1.90359
2023-01-18T15:49:25.158Z,1.8293
2023-01-18T15:54:26.109Z,1.82671
2023-01-18T15:59:27.051Z,1.84932
2023-01-18T16:04:28.023Z,1.73982
2023-01-18T16:09:28.948Z,1.76566
2023-01-18T16:14:29.921Z,1.8083
2023-01-18T16:19:30.910Z,1.78795
2023-01-18T16:24:31.794Z,1.78634
2023-01-18T16:29:32.741Z,1.81056
2023-01-18T16:34:33.645Z,1.82801
2023-01-18T16:39:34.570Z,1.74822
2023-01-18T16:44:35.557Z,1.74887
2023-01-18T16:49:36.514Z,1.78731
2023-01-18T16:54:37.396Z,1.81347
2023-01-18T16:59:38.382Z,1.80572
2023-01-18T17:04:39.312Z,1.74887
2023-01-18T17:09:47.846Z,1.60093
2023-01-18T17:14:49.860Z,1.57961
2023-01-18T17:19:50.770Z,1.54408
2023-01-18T17:24:51.755Z,1.47108
2023-01-18T17:29:52.696Z,1.46139
2023-01-18T17:34:53.635Z,1.37159
2023-01-18T17:40:10.839Z,1.36255
2023-01-18T17:45:13.348Z,1.36287
2023-01-18T17:50:14.924Z,1.28729
2023-01-18T17:55:17.864Z,1.31668
2023-01-18T18:00:20.567Z,1.23335
2023-01-18T18:05:21.543Z,1.22462
2023-01-18T18:10:22.506Z,1.1077
2023-01-18T18:15:23.482Z,1.02048
2023-01-18T18:20:24.487Z,1.00918
2023-01-18T18:25:25.472Z,1.01176
2023-01-18T18:30:26.407Z,0.96105
2023-01-18T18:35:27.337Z,0.848
2023-01-18T18:40:28.379Z,0.83605
2023-01-18T18:45:29.301Z,0.81602
2023-01-18T18:50:30.232Z,0.72202
2023-01-18T18:55:31.362Z,0.66388
2023-01-18T19:00:32.343Z,0.58507
2023-01-18T19:05:33.288Z,0.50464
2023-01-18T19:10:34.220Z,0.41226
2023-01-18T19:15:35.455Z,0.31052
2023-01-18T19:20:36.488Z,0.31536
2023-01-18T19:25:37.434Z,0.29695
2023-01-18T19:30:38.511Z,0.26433
2023-01-18T19:35:40.823Z,0.23073
2023-01-18T19:40:42.059Z,0.24914
2023-01-18T19:45:42.971Z,0.24462
2023-01-18T19:50:43.951Z,0.11058
2023-01-18T19:55:44.896Z,0.04145
2023-01-18T20:00:45.921Z,0.02821
2023-01-18T20:05:49.677Z,-0.07483
2023-01-18T20:10:50.810Z,-0.16366
2023-01-18T20:15:51.777Z,-0.28252
2023-01-18T20:20:52.819Z,-0.42141
2023-01-18T20:25:53.764Z,-0.49021
2023-01-18T20:30:54.791Z,-0.5238
2023-01-18T20:35:55.973Z,-0.70921
2023-01-18T20:40:56.988Z,-0.75798
2023-01-18T20:45:58.031Z,-0.83518
2023-01-18T20:50:59.031Z,-0.86683
2023-01-18T20:55:59.981Z,-0.83712
2023-01-18T21:01:00.993Z,-0.87878
2023-01-18T21:06:02.198Z,-0.99183
2023-01-18T21:11:03.196Z,-1.02833
2023-01-18T21:16:04.096Z,-1.07194
2023-01-18T21:21:09.991Z,-1.15075
2023-01-18T21:26:10.966Z,-1.22795
2023-01-18T21:31:11.924Z,-1.35327
2023-01-18T21:36:12.896Z,-1.38266
2023-01-18T21:41:13.843Z,-1.36684
2023-01-18T21:46:14.782Z,-1.41109
2023-01-18T21:51:15.767Z,-1.55773
2023-01-18T21:56:16.695Z,-1.65334
2023-01-18T22:01:17.822Z,-1.73182
2023-01-18T22:06:19.195Z,-1.84649
2023-01-18T22:11:20.309Z,-1.91044
2023-01-18T22:16:21.322Z,-1.96018
2023-01-18T22:21:22.271Z,-1.97343
2023-01-18T22:26:23.911Z,-2.01477
2023-01-18T22:31:25.901Z,-2.07517
2023-01-18T22:36:26.862Z,-2.14332
2023-01-18T22:41:27.776Z,-2.13202
2023-01-18T22:46:28.739Z,-2.14461
2023-01-18T22:51:29.881Z,-2.16948
2023-01-18T22:56:30.807Z,-2.13396
2023-01-18T23:01:31.726Z,-2.122
2023-01-18T23:06:32.615Z,-2.14881
2023-01-18T23:11:33.534Z,-2.19209
2023-01-18T23:16:34.475Z,-2.26154
2023-01-18T23:21:35.459Z,-2.30902
2023-01-18T23:26:36.390Z,-2.3087
2023-01-18T23:31:37.344Z,-2.33809
2023-01-18T23:36:38.267Z,-2.45017
2023-01-18T23:41:39.252Z,-2.52736
2023-01-18T23:46:40.179Z,-2.56322
2023-01-18T23:51:41.109Z,-2.61554
2023-01-18T23:56:42.033Z,-2.61231
